createdAt,value
2024-01-12T00:01:20.430Z,8.73
2024-01-12T00:05:23.342Z,8.80
2024-01-12T00:09:25.475Z,8.69
2024-01-12T00:13:27.110Z,8.70
2024-01-12T00:17:32.195Z,8.88
2024-01-12T00:21:34.426Z,8.90
2024-01-12T00:25:36.388Z,8.87
2024-01-12T00:29:38.585Z,8.96
2024-01-12T00:33:40.377Z,9.05
2024-01-12T00:37:42.209Z,9.12
2024-01-12T00:41:45.588Z,9.10
2024-01-12T00:45:47.384Z,9.06
2024-01-12T00:49:50.247Z,9.11
2024-01-12T00:53:52.214Z,9.02
2024-01-12T00:57:56.021Z,9.01
2024-01-12T01:01:59.676Z,9.19
2024-01-12T01:06:01.178Z,8.89
2024-01-12T01:10:04.949Z,8.92
2024-01-12T01:14:06.456Z,8.96
2024-01-12T01:18:08.284Z,9.00
2024-01-12T01:22:09.865Z,8.88
2024-01-12T01:26:12.675Z,8.93
2024-01-12T01:30:15.949Z,8.96
2024-01-12T01:34:17.804Z,8.99
2024-01-12T01:38:19.654Z,8.64
2024-01-12T01:42:21.371Z,8.82
2024-01-12T01:46:24.077Z,8.89
2024-01-12T01:50:27.355Z,8.66
2024-01-12T01:54:29.407Z,8.61
2024-01-12T01:58:32.426Z,8.86
2024-01-12T02:02:34.588Z,8.68
2024-01-12T02:06:36.482Z,8.60
2024-01-12T02:10:38.300Z,8.76
2024-01-12T02:14:40.206Z,8.88
2024-01-12T02:18:41.844Z,8.86
2024-01-12T02:22:43.577Z,8.89
2024-01-12T02:26:45.747Z,8.93
2024-01-12T02:30:48.357Z,9.17
2024-01-12T02:34:58.192Z,9.03
2024-01-12T02:39:01.347Z,8.97
2024-01-12T02:43:07.641Z,9.13
2024-01-12T02:47:10.127Z,9.10
2024-01-12T02:51:11.603Z,9.21
2024-01-12T02:55:13.398Z,9.19
2024-01-12T02:59:16.364Z,9.25
2024-01-12T03:03:20.335Z,9.13
2024-01-12T03:07:22.127Z,8.81
2024-01-12T03:11:24.029Z,8.98
2024-01-12T03:15:25.811Z,9.20
2024-01-12T03:19:27.367Z,9.08
2024-01-12T03:23:29.198Z,8.96
2024-01-12T03:27:30.625Z,8.80
2024-01-12T03:31:34.273Z,8.91
2024-01-12T03:35:37.988Z,8.84
2024-01-12T03:39:41.560Z,8.92
2024-01-12T03:43:44.059Z,9.04
2024-01-12T03:47:46.619Z,8.98
2024-01-12T03:51:55.255Z,8.89
2024-01-12T03:55:56.920Z,9.02
2024-01-12T03:59:58.584Z,9.17
2024-01-12T04:04:00.491Z,9.20
2024-01-12T04:08:06.494Z,8.83
2024-01-12T04:12:08.669Z,9.22
2024-01-12T04:16:10.240Z,9.18
2024-01-12T04:20:13.204Z,9.31
2024-01-12T04:24:14.606Z,9.25
2024-01-12T04:28:16.315Z,9.34
2024-01-12T04:32:20.243Z,9.25
2024-01-12T04:36:25.068Z,9.35
2024-01-12T04:40:28.067Z,9.36
2024-01-12T04:44:29.882Z,9.29
2024-01-12T04:48:33.459Z,9.31
2024-01-12T04:52:36.557Z,9.40
2024-01-12T04:56:38.279Z,9.23
2024-01-12T05:00:40.155Z,9.32
2024-01-12T05:04:41.677Z,9.32
2024-01-12T05:08:44.341Z,9.38
2024-01-12T05:12:47.191Z,9.28
2024-01-12T05:16:50.040Z,9.30
2024-01-12T05:20:51.646Z,9.18
2024-01-12T05:24:53.175Z,9.32
2024-01-12T05:28:56.149Z,9.26
2024-01-12T05:32:57.686Z,9.33
2024-01-12T05:37:02.185Z,9.30
2024-01-12T05:41:04.051Z,9.34
2024-01-12T05:45:08.176Z,9.38
2024-01-12T05:49:10.433Z,9.28
2024-01-12T05:53:12.480Z,9.47
2024-01-12T05:57:14.242Z,9.49
2024-01-12T06:01:15.857Z,9.05
2024-01-12T06:05:18.373Z,9.33
2024-01-12T06:09:20.899Z,9.35
2024-01-12T06:13:23.157Z,9.43
2024-01-12T06:17:24.994Z,9.22
2024-01-12T06:21:27.124Z,9.27
2024-01-12T06:25:30.929Z,9.33
2024-01-12T06:29:32.826Z,9.17
2024-01-12T06:33:35.640Z,9.43
2024-01-12T06:37:38.567Z,9.27
2024-01-12T06:41:48.051Z,9.34
2024-01-12T06:45:51.290Z,9.51
2024-01-12T06:49:53.001Z,9.44
2024-01-12T07:02:08.655Z,9.54
2024-01-12T07:06:11.073Z,9.53
2024-01-12T07:10:12.741Z,9.51
2024-01-12T07:14:15.867Z,9.29
2024-01-12T07:18:21.302Z,9.78
2024-01-12T07:22:22.849Z,9.70
2024-01-12T07:26:24.808Z,9.64
2024-01-12T07:30:26.859Z,9.54
2024-01-12T07:34:30.810Z,9.79
2024-01-12T07:38:32.955Z,9.71
2024-01-12T07:42:36.053Z,9.40
2024-01-12T07:46:37.919Z,9.45
2024-01-12T07:50:41.477Z,9.33
2024-01-12T07:54:44.561Z,9.54
2024-01-12T07:58:49.029Z,9.73
2024-01-12T08:02:55.997Z,9.64
2024-01-12T08:06:57.982Z,9.69
2024-01-12T08:10:59.849Z,9.73
2024-01-12T08:15:02.223Z,9.73
2024-01-12T08:19:04.115Z,8.83
2024-01-12T08:23:06.007Z,8.19
2024-01-12T08:27:07.544Z,9.02
2024-01-12T08:31:09.678Z,9.04
2024-01-12T08:35:11.332Z,9.44
2024-01-12T08:39:13.928Z,9.59
2024-01-12T08:43:15.646Z,9.37
2024-01-12T08:47:23.137Z,9.62
2024-01-12T08:51:24.930Z,9.86
2024-01-12T08:55:27.611Z,9.61
2024-01-12T08:59:30.006Z,9.56
2024-01-12T09:03:31.811Z,9.79
2024-01-12T09:07:33.721Z,9.75
2024-01-12T09:11:36.018Z,9.77
2024-01-12T09:15:37.499Z,9.50
2024-01-12T09:19:39.146Z,9.59
2024-01-12T09:23:42.598Z,9.76
2024-01-12T09:27:44.093Z,9.87
2024-01-12T09:31:45.696Z,9.88
2024-01-12T09:35:47.352Z,9.80
2024-01-12T09:39:49.843Z,9.87
2024-01-12T09:43:56.566Z,10.09
2024-01-12T09:48:01.293Z,9.89
2024-01-12T09:52:04.359Z,10.15
2024-01-12T09:56:08.442Z,10.10
2024-01-12T10:00:14.727Z,10.36
2024-01-12T10:04:17.426Z,9.95
2024-01-12T10:08:19.077Z,9.97
2024-01-12T10:12:20.823Z,10.00
2024-01-12T10:16:25.044Z,9.81
2024-01-12T10:20:28.697Z,10.23
2024-01-12T10:24:32.241Z,10.17
2024-01-12T10:28:34.424Z,10.08
2024-01-12T10:32:37.110Z,10.25
2024-01-12T10:36:40.118Z,10.34
2024-01-12T10:40:43.241Z,10.28
2024-01-12T10:44:55.180Z,10.31
2024-01-12T10:49:07.372Z,10.22
2024-01-12T10:53:19.134Z,10.00
2024-01-12T10:57:21.204Z,10.32
2024-01-12T11:01:25.785Z,10.42
2024-01-12T11:05:30.523Z,9.91
2024-01-12T11:09:32.777Z,10.40
2024-01-12T11:13:35.295Z,9.98
2024-01-12T11:17:38.414Z,10.18
2024-01-12T11:21:41.973Z,10.32
2024-01-12T11:25:45.156Z,10.42
2024-01-12T11:29:53.969Z,9.86
2024-01-12T11:34:02.379Z,10.24
2024-01-12T11:38:10.224Z,10.22
2024-01-12T11:42:12.413Z,10.34
2024-01-12T11:46:15.183Z,10.20
2024-01-12T11:50:21.720Z,10.29
2024-01-12T11:54:24.546Z,10.31
2024-01-12T11:58:31.416Z,10.42
2024-01-12T12:02:36.831Z,10.40
2024-01-12T12:06:38.655Z,10.32
2024-01-12T12:10:44.064Z,10.05
2024-01-12T12:14:58.747Z,10.04
2024-01-12T12:19:02.082Z,9.66
2024-01-12T12:23:05.395Z,10.17
2024-01-12T12:27:08.572Z,9.98
2024-01-12T12:31:12.189Z,10.11
2024-01-12T12:35:15.580Z,10.25
2024-01-12T12:39:21.234Z,10.44
2024-01-12T12:43:23.658Z,10.34
2024-01-12T12:47:28.618Z,10.22
2024-01-12T12:51:31.299Z,10.58
2024-01-12T12:55:32.818Z,10.44
2024-01-12T12:59:37.096Z,10.62
2024-01-12T13:03:39.211Z,10.53
2024-01-12T13:07:41.405Z,10.58
2024-01-12T13:11:43.223Z,10.55
2024-01-12T13:15:44.867Z,10.68
2024-01-12T13:19:46.410Z,10.88
2024-01-12T13:23:48.058Z,10.66
2024-01-12T13:27:49.539Z,10.57
2024-01-12T13:31:51.465Z,10.56
2024-01-12T13:35:54.948Z,10.53
2024-01-12T13:40:00.055Z,10.39
2024-01-12T13:44:04.908Z,10.43
2024-01-12T13:48:11.068Z,10.46
2024-01-12T13:52:13.698Z,10.55
2024-01-12T13:56:15.619Z,10.16
2024-01-12T14:00:29.407Z,10.45
2024-01-12T14:04:32.566Z,10.42
2024-01-12T14:08:38.508Z,10.41
2024-01-12T14:12:41.023Z,10.28
2024-01-12T14:16:43.044Z,10.35
2024-01-12T14:20:44.506Z,10.51
2024-01-12T14:24:51.095Z,10.31
2024-01-12T14:28:55.862Z,10.42
2024-01-12T14:32:58.751Z,10.30
2024-01-12T14:37:00.551Z,9.96
2024-01-12T14:41:02.247Z,10.41
2024-01-12T14:45:06.466Z,10.41
2024-01-12T14:49:12.092Z,10.45
2024-01-12T14:53:14.021Z,10.40
2024-01-12T14:57:17.656Z,10.52
2024-01-12T15:01:20.079Z,10.28
2024-01-12T15:05:24.297Z,10.33
2024-01-12T15:09:26.246Z,10.23
2024-01-12T15:13:29.222Z,10.13
2024-01-12T15:17:31.819Z,10.36
2024-01-12T15:21:34.932Z,10.05
2024-01-12T15:25:36.770Z,10.19
2024-01-12T15:29:38.375Z,10.05
2024-01-12T15:33:46.155Z,10.24
2024-01-12T15:37:48.100Z,10.26
2024-01-12T15:41:54.524Z,10.17
2024-01-12T15:45:56.809Z,10.35
2024-01-12T15:49:58.484Z,10.20
2024-01-12T15:54:01.035Z,10.21
2024-01-12T15:58:04.305Z,10.12
2024-01-12T16:02:06.665Z,10.16
2024-01-12T16:06:09.639Z,10.29
2024-01-12T16:10:11.340Z,10.19
2024-01-12T16:14:13.344Z,10.35
2024-01-12T16:18:17.693Z,10.28
2024-01-12T16:22:19.391Z,10.24
2024-01-12T16:26:22.795Z,10.08
2024-01-12T16:30:25.998Z,10.20
2024-01-12T16:34:27.884Z,10.17
2024-01-12T16:38:30.263Z,10.18
2024-01-12T16:42:31.825Z,10.16
2024-01-12T16:46:33.480Z,10.35
2024-01-12T16:50:36.135Z,10.31
2024-01-12T16:54:37.602Z,10.23
2024-01-12T16:58:42.525Z,10.43
2024-01-12T17:02:45.479Z,10.33
2024-01-12T17:06:53.608Z,10.34
2024-01-12T17:10:56.101Z,10.41
2024-01-12T17:14:57.807Z,10.52
2024-01-12T17:19:00.251Z,10.30
2024-01-12T17:23:01.951Z,10.30
2024-01-12T17:27:07.379Z,10.38
2024-01-12T17:31:10.147Z,10.43
2024-01-12T17:35:13.289Z,10.50
2024-01-12T17:39:18.866Z,10.34
2024-01-12T17:43:22.169Z,10.45
2024-01-12T17:47:23.982Z,10.55
2024-01-12T17:51:27.042Z,10.30
2024-01-12T17:55:29.921Z,10.46
2024-01-12T17:59:35.249Z,10.43
2024-01-12T18:03:36.803Z,10.55
2024-01-12T18:07:40.717Z,10.52
2024-01-12T18:11:45.313Z,10.55
2024-01-12T18:15:49.929Z,10.61
2024-01-12T18:19:51.857Z,10.43
2024-01-12T18:23:54.970Z,10.46
2024-01-12T18:27:56.733Z,10.44
2024-01-12T18:32:00.959Z,10.56
2024-01-12T18:36:03.345Z,10.43
2024-01-12T18:40:05.553Z,10.35
2024-01-12T18:44:07.003Z,10.45
2024-01-12T18:48:08.786Z,10.62
2024-01-12T18:52:12.261Z,10.56
2024-01-12T18:56:17.380Z,10.49
2024-01-12T19:00:19.563Z,10.57
2024-01-12T19:04:26.314Z,10.39
2024-01-12T19:08:31.490Z,10.39
2024-01-12T19:12:32.971Z,10.26
2024-01-12T19:16:36.115Z,10.38
2024-01-12T19:20:39.832Z,10.24
2024-01-12T19:24:49.996Z,10.25
2024-01-12T19:28:51.868Z,10.04
2024-01-12T19:32:53.584Z,10.02
2024-01-12T19:37:00.110Z,10.20
2024-01-12T19:41:03.012Z,10.22
2024-01-12T19:45:13.275Z,10.23
2024-01-12T19:49:16.228Z,10.30
2024-01-12T19:53:20.936Z,10.33
2024-01-12T19:57:23.836Z,10.40
2024-01-12T20:01:31.489Z,10.36
2024-01-12T20:05:35.589Z,10.48
2024-01-12T20:09:42.831Z,10.32
2024-01-12T20:13:44.357Z,10.53
2024-01-12T20:17:46.439Z,10.59
2024-01-12T20:21:49.453Z,10.55
2024-01-12T20:25:51.810Z,10.57
2024-01-12T20:29:53.742Z,10.58
2024-01-12T20:33:55.476Z,10.62
2024-01-12T20:37:57.046Z,10.65
2024-01-12T20:42:05.339Z,10.57
2024-01-12T20:46:07.001Z,10.53
2024-01-12T20:50:08.652Z,10.63
2024-01-12T20:54:10.606Z,10.65
2024-01-12T20:58:12.808Z,10.72
2024-01-12T21:02:16.932Z,10.84
2024-01-12T21:06:20.342Z,10.77
2024-01-12T21:10:23.715Z,10.78
2024-01-12T21:14:29.718Z,10.80
2024-01-12T21:18:36.126Z,10.79
2024-01-12T21:22:42.942Z,10.78
2024-01-12T21:26:45.070Z,10.79
2024-01-12T21:30:46.780Z,10.84
2024-01-12T21:34:50.883Z,10.81
2024-01-12T21:38:55.252Z,10.73
2024-01-12T21:42:58.518Z,10.54
2024-01-12T21:47:00.428Z,10.70
2024-01-12T21:51:02.012Z,10.77
2024-01-12T21:55:06.247Z,10.65
2024-01-12T21:59:09.190Z,10.71
2024-01-12T22:03:10.959Z,10.74
2024-01-12T22:07:13.984Z,10.73
2024-01-12T22:11:15.818Z,10.56
2024-01-12T22:15:17.598Z,10.70
2024-01-12T22:19:19.544Z,10.67
2024-01-12T22:23:21.350Z,10.80
2024-01-12T22:27:22.925Z,10.60
2024-01-12T22:31:27.677Z,10.67
2024-01-12T22:35:30.057Z,10.68
2024-01-12T22:39:31.642Z,10.48
2024-01-12T22:43:33.474Z,10.76
2024-01-12T22:47:36.371Z,10.85
2024-01-12T22:51:38.174Z,10.98
2024-01-12T22:55:39.839Z,10.73
2024-01-12T22:59:43.921Z,10.82
2024-01-12T23:03:46.605Z,10.91
2024-01-12T23:07:48.441Z,10.98
2024-01-12T23:11:51.668Z,10.92
2024-01-12T23:15:53.690Z,10.89
2024-01-12T23:19:55.679Z,10.97
2024-01-12T23:23:57.511Z,10.91
2024-01-12T23:27:59.808Z,10.91
2024-01-12T23:32:01.906Z,10.87
2024-01-12T23:36:05.571Z,10.88
2024-01-12T23:40:14.763Z,10.82
2024-01-12T23:44:16.812Z,10.96
2024-01-12T23:48:27.471Z,10.99
2024-01-12T23:52:37.480Z,10.90
2024-01-12T23:56:39.812Z,10.87
